logo
App data

Farm Frenzy 3

Manage five farms around the world and try your hand at penguin-breeding and jewelry-making in Farm Frenzy 3! Features 95 outrageously fun levels, 30 wacky animals and more upgrades than there are ears in a corn field!
Store | Hub | SteamDB | Site
Developer: Alawar Publisher: iWin
Genre: Casual
Languages: English
Tags: Casual (48), Puzzle (26), Agriculture (26), Time Management (6)
Category: Single-player
Release date: Feb 15, 2010
Price: $9.99
Owners: 0 .. 20,000
Followers: 114
Peak concurrent players yesterday: 3
YouTube stats: 7 views and 0 comments for videos uploaded last week, 0 new videos uploaded yesterday.
Playtime total: 03:33 (average) 03:33 (median)

Steam Spy is still in beta, so expect major bugs.

Owners data:

Access restricted.

This feature is only available to users with special access rights. Sorry.

If you want to proceed, you need to register or log in first and then back Steam Spy on Patreon. Look for Indie or Pro pledge.

Don't forget to use the same email as on Steam Spy!

Audience in 2 weeks:

Access restricted.

This feature is only available to users with special access rights. Sorry.

If you want to proceed, you need to register or log in first and then back Steam Spy on Patreon. Look for Indie or Pro pledge.

Don't forget to use the same email as on Steam Spy!

Peak daily concurrent players:

CCU data courtesy of SteamDB. Used with permission.

Hourly concurrent players:

Daily Twitch stats:

Hourly Twitch stats:

YouTube:

The views data is based on top 50 videos uploaded last week. Actual number of views might be more than the number shown.

The displayed number of videos uploaded yesterday is limited to 50, so if there were more videos uploaded, the number will still show 50.

If the game has commonly used word as its name (like "FEAR" or "Volume") its number of Youtube views might be wrong.

Games similar to this one:

# Game Release date
Price
Score rank
(Userscore / Metascore)
Owners
Players
Playtime (Median)
1 Lost Lands: The Four Horsemen Jul 14, 2015 $6.9997% (97%)0 .. 20,0000%00:00 (00:00)
2 Flowers -Le volume sur printemps- Aug 17, 2016 $19.9997% (97%)0 .. 20,0000%00:00 (00:00)
3 Legends of Atlantis: Exodus Apr 9, 2012 $6.99N/A (N/A)0 .. 20,0000%00:00 (00:00)
4 Eventide: Slavic Fable Jan 28, 2016 $9.9993% (95%)50,000 .. 100,0000%00:00 (00:00)
5 Tradewinds Classics Jul 17, 2009 $4.99N/A (N/A)0 .. 20,0000%00:00 (00:00)
6 Peggle Nights Oct 15, 2008 $4.9990% (94%/76%)200,000 .. 500,0001.84%01:03 (01:00)
7 Chuzzle Deluxe Aug 30, 2006 $4.9987% (93%)50,000 .. 100,0000%00:00 (00:00)
8 Putt-Putt and Pep's Balloon-o-Rama Apr 17, 2014 $4.99N/A (N/A)20,000 .. 50,0000%00:00 (00:00)
9 Princess Maker 2 Refine Sep 28, 2016 $19.9984% (92%)20,000 .. 50,0000%00:00 (00:00)
10 Farm Frenzy 2 Feb 15, 2010 $4.99N/A (N/A)0 .. 20,0000%00:00 (00:00)
11 YOU DON’T KNOW JACK Feb 8, 2011 N/A84% (92%/71%)0 .. 20,00011.11%01:37 (00:32)
12 Hidden Object Bundle 4 in 1 Jun 1, 2014 $7.9980% (91%)20,000 .. 50,0000%00:00 (00:00)
13 Alice's Patchwork Mar 3, 2016 $4.9980% (91%)20,000 .. 50,0002.08%04:21 (04:30)
14 Kitty Cat: Jigsaw Puzzles Jul 18, 2016 $1.9980% (91%)50,000 .. 100,0000%00:00 (00:00)
15 Gnomes Garden 2 May 18, 2016 $4.99N/A (N/A)20,000 .. 50,0000%00:00 (00:00)
16 Grim Legends 3: The Dark City Jun 2, 2016 $9.9977% (90%)20,000 .. 50,0000%00:00 (00:00)
17 Super Jagua Sep 15, 2016 $0.9974% (89%)0 .. 20,0000%00:00 (00:00)
18 Lost Grimoires: Stolen Kingdom Nov 10, 2016 $9.9974% (89%)0 .. 20,0000%00:00 (00:00)
19 Stikbold! A Dodgeball Adventure Apr 1, 2016 $9.9974% (89%)50,000 .. 100,0000%00:00 (00:00)
20 Luxor 3 Jun 10, 2008 $9.99N/A (N/A)20,000 .. 50,0000%00:00 (00:00)
21 Puzzler World May 28, 2010 $4.9971% (88%)50,000 .. 100,0000.81%00:22 (00:07)
22 Shufflepuck Cantina Deluxe Dec 6, 2013 $9.9971% (88%)100,000 .. 200,0000%00:00 (00:00)
23 Hidden Object 6-in-1 bundle Mar 16, 2016 $11.9971% (88%)20,000 .. 50,0000%00:00 (00:00)
24 Burnout Paradise: The Ultimate Box Mar 12, 2009 $19.9968% (87%/87%)1,000,000 .. 2,000,0000.42%02:42 (04:05)
25 Delicious! Pretty Girls Mahjong Solitaire Oct 14, 2016 $0.9968% (87%)50,000 .. 100,0002.17%01:01 (01:00)
26 Space Codex May 9, 2016 $0.9965% (86%)50,000 .. 100,0000%00:00 (00:00)
27 Brink of Consciousness: The Lonely Hearts Murders Nov 24, 2014 $9.9963% (85%)0 .. 20,0000%00:00 (00:00)
28 SimpleRockets Jun 3, 2015 $7.9960% (84%)20,000 .. 50,0000%00:00 (00:00)
29 Plant Tycoon May 12, 2008 $9.99N/A (N/A)0 .. 20,0000%00:00 (00:00)
30 Little Racers STREET Feb 6, 2014 $5.9960% (84%/62%)100,000 .. 200,0000%00:00 (00:00)
31 House of Snark 6-in-1 Bundle Jul 17, 2016 $11.99N/A (N/A)0 .. 20,0000%00:00 (00:00)
32 LUXOR: Mah Jong Jul 13, 2009 $9.99N/A (N/A)50,000 .. 100,0000%00:00 (00:00)
33 My Riding Stables: Life with Horses Mar 27, 2014 $14.9958% (83%)0 .. 20,0000%00:00 (00:00)
34 Gnomes Garden Dec 18, 2015 $4.9955% (82%)20,000 .. 50,0000.35%01:09 (00:23)
35 Combat Wings: Battle of Britain Oct 14, 2009 $4.9953% (81%)100,000 .. 200,0000%00:00 (00:00)
36 Mystery Case Files: Madame Fate Dec 14, 2007 $6.99N/A (N/A)0 .. 20,0000%00:00 (00:00)
37 Crash Dive Jul 6, 2015 $6.9953% (81%)0 .. 20,0000%00:00 (00:00)
38 LogicBots Feb 8, 2017 $9.9951% (80%)0 .. 20,0000%00:00 (00:00)
39 7 Wonders: Treasures of Seven Nov 14, 2008 $9.99N/A (N/A)20,000 .. 50,0000%00:00 (00:00)
40 The Wizard's Pen Feb 18, 2009 $4.99N/A (N/A)20,000 .. 50,0000%00:00 (00:00)
41 Rotastic Oct 11, 2012 $9.99N/A (N/A)0 .. 20,0000%00:00 (00:00)
42 Steel Armor: Blaze of War Mar 5, 2015 $29.9949% (79%/70%)0 .. 20,0000%00:00 (00:00)
43 Typer Shark! Deluxe Aug 30, 2006 $4.9949% (79%)20,000 .. 50,0000%00:00 (00:00)
44 Sea Legends: Phantasmal Light Collector's Edition Jan 15, 2012 $4.9947% (78%)20,000 .. 50,0000%00:00 (00:00)
45 Rube Works: The Official Rube Goldberg Invention Game Apr 19, 2014 $4.99N/A (N/A)0 .. 20,0000%00:00 (00:00)
46 Buzz Aldrin's Space Program Manager Oct 31, 2014 $29.9947% (78%/62%)0 .. 20,0000%00:00 (00:00)
47 Qvadriga Jun 13, 2014 $19.9947% (78%/72%)20,000 .. 50,0000%00:00 (00:00)
48 Echelon: Wind Warriors Feb 3, 2004 $3.9945% (77%/63%)0 .. 20,0000%00:00 (00:00)
49 Cake Mania Main Street Feb 16, 2010 $6.99N/A (N/A)0 .. 20,0000%00:00 (00:00)
50 Virtual Villagers: The Lost Children May 12, 2008 $9.99N/A (N/A)0 .. 20,0000%00:00 (00:00)
51 Hotel Dash Suite Success May 6, 2010 $6.99N/A (N/A)0 .. 20,0000%00:00 (00:00)
52 Teddy Floppy Ear - The Race May 22, 2015 $4.9939% (74%)100,000 .. 200,0000.59%02:54 (01:56)
53 Toilet Tycoon Mar 1, 2000 $4.9939% (74%)0 .. 20,0000%00:00 (00:00)
54 Amazing Adventures Around the World Apr 15, 2009 $4.99N/A (N/A)20,000 .. 50,0005.88%02:15 (00:45)
55 Ski Region Simulator - Gold Edition Jan 31, 2014 $8.9937% (73%)20,000 .. 50,0005.56%00:02 (00:01)
56 Evolution Planet: Gold Edition Jul 7, 2016 $4.99N/A (N/A)0 .. 20,0000%00:00 (00:00)
57 StuntMANIA Reloaded Nov 13, 2014 $4.9936% (72%)20,000 .. 50,0000%00:00 (00:00)
58 Amazing Adventures The Lost Tomb Dec 13, 2007 $4.99N/A (N/A)20,000 .. 50,0006.25%00:01 (00:00)
59 aerofly RC 7 Nov 6, 2014 $39.9934% (71%)0 .. 20,0000%00:00 (00:00)
60 Democracy 3 Africa Apr 12, 2016 $14.9934% (71%)50,000 .. 100,0007.14%00:02 (00:00)
61 Football Mogul 2014 Sep 4, 2013 $4.99N/A (N/A)20,000 .. 50,0000%00:00 (00:00)
62 Chronicle Keepers: The Dreaming Garden Jun 11, 2015 $0.4934% (71%)0 .. 20,0000%00:00 (00:00)
63 Cooking Dash Aug 12, 2009 $9.99N/A (N/A)0 .. 20,0000%00:00 (00:00)
64 IL-2 Sturmovik: Battle of Stalingrad Oct 22, 2014 $49.9933% (70%/74%)50,000 .. 100,0007.5%06:43 (06:43)
65 Cake Mania Collection Jul 17, 2009 $14.99N/A (N/A)0 .. 20,0000%00:00 (00:00)
66 Splendor Sep 17, 2015 $9.9931% (69%)0 .. 20,0000%00:00 (00:00)
67 MiniDrivers Aug 20, 2015 $5.9931% (69%)20,000 .. 50,0000%00:00 (00:00)
68 Little Farm Jun 10, 2008 $9.99N/A (N/A)20,000 .. 50,0000%00:00 (00:00)
69 Chocolatier: Decadence by Design Aug 12, 2009 $9.9928% (67%)0 .. 20,0000%00:00 (00:00)
70 Scrabble Jun 10, 2013 $9.99N/A (N/A)0 .. 20,0000%00:00 (00:00)
71 Twisted Lands Trilogy: Collector's Edition Oct 28, 2015 $19.9926% (66%)0 .. 20,0000%00:00 (00:00)
72 Eagle Flight Dec 20, 2016 $19.9926% (66%/74%)0 .. 20,0000%00:00 (00:00)
73 Farming 6-in-1 bundle Jun 2, 2016 $5.99N/A (N/A)0 .. 20,0000%00:00 (00:00)
74 Obliteracers Feb 23, 2016 $14.9925% (65%/78%)20,000 .. 50,0000%00:00 (00:00)
75 Pro Cycling Manager 2014 Jun 19, 2014 $9.9924% (64%)20,000 .. 50,0000%00:00 (00:00)
76 PAC-MAN CHAMPIONSHIP EDITION 2 Sep 13, 2016 $12.9924% (64%)50,000 .. 100,0000.99%00:03 (00:01)
77 Mahjong Pretty Girls Battle : School Girls Edition Jun 22, 2015 $14.9924% (64%)20,000 .. 50,0000%00:00 (00:00)
78 City Life 2008 Sep 29, 2008 $9.9923% (63%)20,000 .. 50,0000%00:00 (00:00)
79 Meridian: Age of Invention Jan 28, 2013 $2.9923% (63%)20,000 .. 50,0000%00:00 (00:00)
80 Castle: Never Judge a Book by its Cover Jul 9, 2013 N/A23% (63%)20,000 .. 50,0000%00:00 (00:00)
81 Zooloretto Apr 3, 2014 $2.99N/A (N/A)0 .. 20,0000%00:00 (00:00)
82 Aerofly FS 1 Flight Simulator Oct 17, 2012 $19.9922% (62%)0 .. 20,0000%00:00 (00:00)
83 Railroad Pioneer Oct 17, 2003 $4.9922% (62%/50%)20,000 .. 50,0000%00:00 (00:00)
84 DinerTown Tycoon Sep 30, 2009 $9.99N/A (N/A)0 .. 20,0000%00:00 (00:00)
85 Gems of the Aztecs Apr 22, 2016 $4.9921% (61%)50,000 .. 100,0000%00:00 (00:00)
86 Trackmania Turbo Mar 24, 2016 $39.9921% (61%)50,000 .. 100,0002.38%06:00 (02:00)
87 Football Club Simulator - FCS 18 Nov 3, 2017 $9.9517% (58%)0 .. 20,0000%00:00 (00:00)
88 Hacker Evolution: Untold Sep 14, 2010 $4.9917% (58%)200,000 .. 500,0000.34%162:34 (108:22)
89 Contract With The Devil Dec 11, 2015 $4.9917% (58%)20,000 .. 50,0000%00:00 (00:00)
90 Chess Knight 2 Sep 11, 2016 $4.9916% (57%)50,000 .. 100,0000.52%02:02 (00:40)
91 Riding Star - Horse Championship! Mar 27, 2014 $9.99N/A (N/A)0 .. 20,0000%00:00 (00:00)
92 Trackday Manager Mar 31, 2016 $11.9915% (56%)0 .. 20,0000%00:00 (00:00)
93 Mystery Masters: Psycho Train Deluxe Edition Feb 3, 2015 $9.9915% (56%)20,000 .. 50,0001.02%04:03 (02:42)
94 Cities XL Platinum Feb 6, 2013 $9.9914% (55%)200,000 .. 500,0000%00:00 (00:00)
95 Ant Queen Jun 15, 2016 $8.9913% (53%)0 .. 20,0000%00:00 (00:00)
96 Pacific Storm Allies Aug 18, 2008 $7.9912% (52%/60%)50,000 .. 100,0000%00:00 (00:00)
97 My Best Friends - Cats & Dogs Mar 27, 2014 $14.99N/A (N/A)0 .. 20,0000%00:00 (00:00)
98 300 Dwarves Jun 17, 2013 $6.9911% (50%)0 .. 20,0000%00:00 (00:00)
99 Ludo Supremo Jun 8, 2016 $2.9911% (50%)20,000 .. 50,0000.51%01:01 (00:20)
100 My Riding Stables - your horse world Mar 28, 2014 $14.99N/A (N/A)0 .. 20,0000%00:00 (00:00)
101 Luxor: Quest for the Afterlife Dec 15, 2008 $9.99N/A (N/A)20,000 .. 50,0000%00:00 (00:00)
102 Shadows: Price For Our Sins Bonus Edition Oct 24, 2013 $9.9911% (50%)50,000 .. 100,0000%00:00 (00:00)
103 Pure Pool Jul 31, 2014 $9.9910% (49%/68%)0 .. 20,0000%00:00 (00:00)
104 Ghost Encounters: Deadwood - Collector's Edition Mar 13, 2015 $4.999% (47%)0 .. 20,0000%00:00 (00:00)
105 Cosplay Maker Dec 10, 2015 $14.99N/A (N/A)0 .. 20,0000%00:00 (00:00)
106 Lords of Football Apr 5, 2013 $4.999% (46%/52%)20,000 .. 50,0002.38%04:43 (01:34)
107 Transport Giant Jun 8, 2004 $9.998% (45%)20,000 .. 50,0000%00:00 (00:00)
108 Professional Farmer 2014 Nov 27, 2013 $14.998% (45%)200,000 .. 500,0000%00:00 (00:00)
109 Silent Hunter 5: Battle of the Atlantic Mar 2010 $9.997% (41%/62%)50,000 .. 100,0000%00:00 (00:00)
110 Echelon Apr 15, 2001 $3.995% (38%/70%)20,000 .. 50,0000%00:00 (00:00)
111 Airport Firefighters - The Simulation May 13, 2015 $14.995% (36%)20,000 .. 50,0000%00:00 (00:00)
112 Princess Isabella: The Rise of an Heir May 12, 2016 $9.994% (34%)0 .. 20,0000%00:00 (00:00)
113 Industry Empire Jul 30, 2014 $19.994% (32%)20,000 .. 50,0000%00:00 (00:00)
114 Fill Up! Feb 17, 2016 $2.99N/A (N/A)0 .. 20,0000%00:00 (00:00)
115 Driving School Simulator Sep 25, 2014 $14.992% (21%)0 .. 20,0000%00:00 (00:00)
116 Switch Galaxy Ultra Nov 20, 2015 $9.992% (17%)20,000 .. 50,0000%00:00 (00:00)
117 Luxury Hotel Emporium Aug 7, 2015 $4.99N/A (N/A)0 .. 20,0000%00:00 (00:00)
118 Black Viper: Sophia's Fate Sep 5, 2014 $9.99N/A (N/A)0 .. 20,0000%00:00 (00:00)
119 Escape The Past Sep 14, 2016 $4.99N/A (N/A)0 .. 20,0000%00:00 (00:00)
120 Rush for gold: California Mar 9, 2016 $3.99N/A (N/A)50,000 .. 100,0000%00:00 (00:00)
121 Tropical Fish Shop 2 Feb 10, 2012 $3.99N/A (N/A)0 .. 20,0000%00:00 (00:00)
122 Lost Legends: The Weeping Woman Collector's Edition Oct 21, 2015 $14.99N/A (N/A)20,000 .. 50,0000%00:00 (00:00)
123 Solitaire Christmas. Match 2 Cards Dec 24, 2015 $4.99N/A (N/A)20,000 .. 50,0000.4%01:45 (00:35)
124 Nokori Mar 25, 2016 $1.99N/A (N/A)0 .. 20,0000%00:00 (00:00)
125 Discovery! A Seek and Find Adventure Jul 29, 2008 $9.99N/A (N/A)0 .. 20,0000%00:00 (00:00)
126 Barnyard Mahjong 3 Jul 29, 2016 $4.99N/A (N/A)50,000 .. 100,0000%00:00 (00:00)
127 Dessert Storm Oct 23, 2016 $1.99N/A (N/A)20,000 .. 50,0000.54%00:01 (00:00)
128 The Hidden Dragon Jul 26, 2016 $4.99N/A (N/A)0 .. 20,0001.5%02:02 (02:00)
129 Adventures of Robinson Crusoe Jan 9, 2015 $9.99N/A (N/A)20,000 .. 50,0000%00:00 (00:00)
130 Bubble Blowout Oct 24, 2016 $1.99N/A (N/A)20,000 .. 50,0000.55%02:02 (00:40)
131 Block Blowout Oct 26, 2016 $1.99N/A (N/A)50,000 .. 100,0000.53%01:53 (00:37)
132 My Pet Hotel Mar 27, 2014 $14.99N/A (N/A)0 .. 20,0000%00:00 (00:00)
133 Fantastic 4 In A Row 2 Aug 15, 2016 $1.99N/A (N/A)50,000 .. 100,0000%00:00 (00:00)
134 Them - The Summoning May 16, 2014 $4.99N/A (N/A)0 .. 20,0000%00:00 (00:00)

Tags over time:

Access restricted.

This feature is only available to users with special access rights. Sorry.

If you want to proceed, you need to register or log in first and then back Steam Spy on Patreon. Look for Indie or Pro pledge.

Don't forget to use the same email as on Steam Spy!

Owners of this game also own:

Access restricted.

This feature is only available to users with special access rights. Sorry.

If you want to proceed, you need to register or log in first and then back Steam Spy on Patreon. Look for Indie or Pro pledge.

Don't forget to use the same email as on Steam Spy!

Playtime distribution:

Access restricted.

This feature is only available to users with special access rights. Sorry.

If you want to proceed, you need to register or log in first and then back Steam Spy on Patreon. Look for Indie or Pro pledge.

Don't forget to use the same email as on Steam Spy!

Playtime (2 weeks):

Access restricted.

This feature is only available to users with special access rights. Sorry.

If you want to proceed, you need to register or log in first and then back Steam Spy on Patreon. Look for Indie or Pro pledge.

Don't forget to use the same email as on Steam Spy!

User reviews:

Login required.

Please register or log in to see this information.